sensor_id;sensor_type;location;lat;lon;timestamp;P1;durP1;ratioP1;P2;durP2;ratioP2
7233;SDS011;3658;47.992;10.158;2023-07-29T00:00:40;1.87;;;1.77;;
7233;SDS011;3658;47.992;10.158;2023-07-29T00:03:07;1.67;;;1.57;;
7233;SDS011;3658;47.992;10.158;2023-07-29T00:05:34;1.83;;;1.50;;
7233;SDS011;3658;47.992;10.158;2023-07-29T00:08:01;1.80;;;1.70;;
7233;SDS011;3658;47.992;10.158;2023-07-29T00:10:30;1.90;;;1.70;;
7233;SDS011;3658;47.992;10.158;2023-07-29T00:12:58;1.63;;;1.53;;
7233;SDS011;3658;47.992;10.158;2023-07-29T00:15:25;2.07;;;1.80;;
7233;SDS011;3658;47.992;10.158;2023-07-29T00:17:52;1.73;;;1.60;;
7233;SDS011;3658;47.992;10.158;2023-07-29T00:20:19;1.67;;;1.53;;
7233;SDS011;3658;47.992;10.158;2023-07-29T00:22:45;1.50;;;1.40;;
7233;SDS011;3658;47.992;10.158;2023-07-29T00:25:14;1.60;;;1.50;;
7233;SDS011;3658;47.992;10.158;2023-07-29T00:27:43;1.60;;;1.50;;
7233;SDS011;3658;47.992;10.158;2023-07-29T00:30:10;1.87;;;1.47;;
7233;SDS011;3658;47.992;10.158;2023-07-29T00:32:37;1.80;;;1.70;;
7233;SDS011;3658;47.992;10.158;2023-07-29T00:35:05;1.70;;;1.60;;
7233;SDS011;3658;47.992;10.158;2023-07-29T00:37:32;1.50;;;1.40;;
7233;SDS011;3658;47.992;10.158;2023-07-29T00:39:59;1.40;;;1.30;;
7233;SDS011;3658;47.992;10.158;2023-07-29T00:42:26;1.87;;;1.70;;
7233;SDS011;3658;47.992;10.158;2023-07-29T00:44:54;1.60;;;1.50;;
7233;SDS011;3658;47.992;10.158;2023-07-29T00:47:21;1.60;;;1.50;;
7233;SDS011;3658;47.992;10.158;2023-07-29T00:49:50;1.73;;;1.63;;
7233;SDS011;3658;47.992;10.158;2023-07-29T00:52:17;2.07;;;1.50;;
7233;SDS011;3658;47.992;10.158;2023-07-29T00:54:44;1.57;;;1.47;;
7233;SDS011;3658;47.992;10.158;2023-07-29T00:57:11;2.70;;;1.50;;
7233;SDS011;3658;47.992;10.158;2023-07-29T00:59:41;2.80;;;1.50;;
7233;SDS011;3658;47.992;10.158;2023-07-29T01:02:09;1.60;;;1.50;;
7233;SDS011;3658;47.992;10.158;2023-07-29T01:04:36;1.63;;;1.47;;
7233;SDS011;3658;47.992;10.158;2023-07-29T01:07:06;1.70;;;1.60;;
7233;SDS011;3658;47.992;10.158;2023-07-29T01:09:41;1.73;;;1.60;;
7233;SDS011;3658;47.992;10.158;2023-07-29T01:12:16;1.40;;;1.30;;
7233;SDS011;3658;47.992;10.158;2023-07-29T01:14:51;1.47;;;1.37;;
7233;SDS011;3658;47.992;10.158;2023-07-29T01:17:28;1.70;;;1.50;;
7233;SDS011;3658;47.992;10.158;2023-07-29T01:20:00;1.60;;;1.50;;
7233;SDS011;3658;47.992;10.158;2023-07-29T01:22:30;1.70;;;1.60;;
7233;SDS011;3658;47.992;10.158;2023-07-29T01:25:00;1.87;;;1.60;;
7233;SDS011;3658;47.992;10.158;2023-07-29T01:27:27;2.20;;;1.63;;
7233;SDS011;3658;47.992;10.158;2023-07-29T01:29:54;1.70;;;1.60;;
7233;SDS011;3658;47.992;10.158;2023-07-29T01:32:25;1.40;;;1.30;;
7233;SDS011;3658;47.992;10.158;2023-07-29T01:34:59;1.73;;;1.63;;
7233;SDS011;3658;47.992;10.158;2023-07-29T01:37:34;2.40;;;1.50;;
7233;SDS011;3658;47.992;10.158;2023-07-29T01:40:04;1.50;;;1.40;;
7233;SDS011;3658;47.992;10.158;2023-07-29T01:42:33;1.50;;;1.40;;
7233;SDS011;3658;47.992;10.158;2023-07-29T01:45:00;1.50;;;1.40;;
7233;SDS011;3658;47.992;10.158;2023-07-29T01:47:27;1.50;;;1.40;;
7233;SDS011;3658;47.992;10.158;2023-07-29T01:49:53;2.23;;;1.50;;
7233;SDS011;3658;47.992;10.158;2023-07-29T01:52:20;1.40;;;1.30;;
7233;SDS011;3658;47.992;10.158;2023-07-29T01:54:47;1.47;;;1.37;;
7233;SDS011;3658;47.992;10.158;2023-07-29T01:57:15;1.50;;;1.40;;
7233;SDS011;3658;47.992;10.158;2023-07-29T01:59:42;1.73;;;1.63;;
7233;SDS011;3658;47.992;10.158;2023-07-29T02:02:09;1.50;;;1.40;;
7233;SDS011;3658;47.992;10.158;2023-07-29T02:04:36;1.87;;;1.60;;
7233;SDS011;3658;47.992;10.158;2023-07-29T02:07:03;1.40;;;1.30;;
7233;SDS011;3658;47.992;10.158;2023-07-29T02:09:30;1.70;;;1.60;;
7233;SDS011;3658;47.992;10.158;2023-07-29T02:11:57;1.47;;;1.37;;
7233;SDS011;3658;47.992;10.158;2023-07-29T02:14:25;1.47;;;1.37;;
7233;SDS011;3658;47.992;10.158;2023-07-29T02:16:52;1.83;;;1.67;;
7233;SDS011;3658;47.992;10.158;2023-07-29T02:19:19;1.50;;;1.40;;
7233;SDS011;3658;47.992;10.158;2023-07-29T02:21:45;1.50;;;1.40;;
7233;SDS011;3658;47.992;10.158;2023-07-29T02:24:12;1.50;;;1.40;;
7233;SDS011;3658;47.992;10.158;2023-07-29T02:26:39;1.47;;;1.37;;
7233;SDS011;3658;47.992;10.158;2023-07-29T02:29:07;1.50;;;1.40;;
7233;SDS011;3658;47.992;10.158;2023-07-29T02:31:35;1.60;;;1.50;;
7233;SDS011;3658;47.992;10.158;2023-07-29T02:34:02;1.47;;;1.37;;
7233;SDS011;3658;47.992;10.158;2023-07-29T02:36:29;1.50;;;1.40;;
7233;SDS011;3658;47.992;10.158;2023-07-29T02:38:56;1.50;;;1.40;;
7233;SDS011;3658;47.992;10.158;2023-07-29T02:41:23;1.43;;;1.33;;
7233;SDS011;3658;47.992;10.158;2023-07-29T02:43:50;1.50;;;1.40;;
7233;SDS011;3658;47.992;10.158;2023-07-29T02:46:17;1.40;;;1.30;;
7233;SDS011;3658;47.992;10.158;2023-07-29T02:48:45;1.50;;;1.40;;
7233;SDS011;3658;47.992;10.158;2023-07-29T02:51:12;1.30;;;1.20;;
7233;SDS011;3658;47.992;10.158;2023-07-29T02:53:39;1.43;;;1.33;;
7233;SDS011;3658;47.992;10.158;2023-07-29T02:56:06;1.60;;;1.50;;
7233;SDS011;3658;47.992;10.158;2023-07-29T02:58:34;1.30;;;1.20;;
7233;SDS011;3658;47.992;10.158;2023-07-29T03:01:01;1.50;;;1.40;;
7233;SDS011;3658;47.992;10.158;2023-07-29T03:03:28;1.50;;;1.40;;
7233;SDS011;3658;47.992;10.158;2023-07-29T03:05:58;1.30;;;1.20;;
7233;SDS011;3658;47.992;10.158;2023-07-29T03:08:26;1.40;;;1.30;;
7233;SDS011;3658;47.992;10.158;2023-07-29T03:10:53;1.30;;;1.20;;
7233;SDS011;3658;47.992;10.158;2023-07-29T03:13:20;1.53;;;1.43;;
7233;SDS011;3658;47.992;10.158;2023-07-29T03:15:47;1.50;;;1.40;;
7233;SDS011;3658;47.992;10.158;2023-07-29T03:18:14;1.40;;;1.30;;
7233;SDS011;3658;47.992;10.158;2023-07-29T03:20:41;1.50;;;1.40;;
7233;SDS011;3658;47.992;10.158;2023-07-29T03:23:09;1.50;;;1.40;;
7233;SDS011;3658;47.992;10.158;2023-07-29T03:25:36;1.67;;;1.57;;
7233;SDS011;3658;47.992;10.158;2023-07-29T03:28:03;1.43;;;1.33;;
7233;SDS011;3658;47.992;10.158;2023-07-29T03:30:30;1.40;;;1.30;;
7233;SDS011;3658;47.992;10.158;2023-07-29T03:32:56;1.60;;;1.50;;
7233;SDS011;3658;47.992;10.158;2023-07-29T03:35:23;1.43;;;1.33;;
7233;SDS011;3658;47.992;10.158;2023-07-29T03:37:50;1.60;;;1.50;;
7233;SDS011;3658;47.992;10.158;2023-07-29T03:40:18;1.40;;;1.30;;
7233;SDS011;3658;47.992;10.158;2023-07-29T03:42:45;1.30;;;1.20;;
7233;SDS011;3658;47.992;10.158;2023-07-29T03:45:12;1.33;;;1.23;;
7233;SDS011;3658;47.992;10.158;2023-07-29T03:47:39;1.30;;;1.20;;
7233;SDS011;3658;47.992;10.158;2023-07-29T03:50:06;1.50;;;1.40;;
7233;SDS011;3658;47.992;10.158;2023-07-29T03:52:33;1.40;;;1.30;;
7233;SDS011;3658;47.992;10.158;2023-07-29T03:54:59;1.67;;;1.43;;
7233;SDS011;3658;47.992;10.158;2023-07-29T03:57:28;1.33;;;1.23;;
7233;SDS011;3658;47.992;10.158;2023-07-29T03:59:55;1.40;;;1.30;;
7233;SDS011;3658;47.992;10.158;2023-07-29T04:02:21;1.70;;;1.47;;
7233;SDS011;3658;47.992;10.158;2023-07-29T04:04:48;1.30;;;1.20;;
7233;SDS011;3658;47.992;10.158;2023-07-29T04:07:15;1.67;;;1.57;;
7233;SDS011;3658;47.992;10.158;2023-07-29T04:09:42;1.40;;;1.30;;
7233;SDS011;3658;47.992;10.158;2023-07-29T04:12:09;1.40;;;1.30;;
7233;SDS011;3658;47.992;10.158;2023-07-29T04:14:37;1.50;;;1.40;;
7233;SDS011;3658;47.992;10.158;2023-07-29T04:17:04;1.30;;;1.20;;
7233;SDS011;3658;47.992;10.158;2023-07-29T04:19:31;1.37;;;1.27;;
7233;SDS011;3658;47.992;10.158;2023-07-29T04:21:58;1.50;;;1.40;;
7233;SDS011;3658;47.992;10.158;2023-07-29T04:24:25;1.33;;;1.23;;
7233;SDS011;3658;47.992;10.158;2023-07-29T04:26:51;1.53;;;1.43;;
7233;SDS011;3658;47.992;10.158;2023-07-29T04:29:18;1.40;;;1.30;;
7233;SDS011;3658;47.992;10.158;2023-07-29T04:31:47;1.40;;;1.30;;
7233;SDS011;3658;47.992;10.158;2023-07-29T04:34:13;1.67;;;1.50;;
7233;SDS011;3658;47.992;10.158;2023-07-29T04:36:40;1.63;;;1.43;;
7233;SDS011;3658;47.992;10.158;2023-07-29T04:39:07;1.37;;;1.27;;
7233;SDS011;3658;47.992;10.158;2023-07-29T04:41:34;1.40;;;1.30;;
7233;SDS011;3658;47.992;10.158;2023-07-29T04:44:01;1.50;;;1.40;;
7233;SDS011;3658;47.992;10.158;2023-07-29T04:46:28;1.50;;;1.40;;
7233;SDS011;3658;47.992;10.158;2023-07-29T04:48:56;1.37;;;1.27;;
7233;SDS011;3658;47.992;10.158;2023-07-29T04:51:23;1.90;;;1.60;;
7233;SDS011;3658;47.992;10.158;2023-07-29T04:53:50;1.43;;;1.33;;
7233;SDS011;3658;47.992;10.158;2023-07-29T04:56:17;1.60;;;1.40;;
7233;SDS011;3658;47.992;10.158;2023-07-29T04:58:44;1.50;;;1.40;;
7233;SDS011;3658;47.992;10.158;2023-07-29T05:01:10;1.50;;;1.40;;
7233;SDS011;3658;47.992;10.158;2023-07-29T05:03:37;1.40;;;1.30;;
7233;SDS011;3658;47.992;10.158;2023-07-29T05:06:06;1.27;;;1.17;;
7233;SDS011;3658;47.992;10.158;2023-07-29T05:08:33;1.60;;;1.30;;
7233;SDS011;3658;47.992;10.158;2023-07-29T05:11:00;1.70;;;1.30;;
7233;SDS011;3658;47.992;10.158;2023-07-29T05:13:27;1.30;;;1.20;;
7233;SDS011;3658;47.992;10.158;2023-07-29T05:15:53;1.50;;;1.40;;
7233;SDS011;3658;47.992;10.158;2023-07-29T05:18:21;1.33;;;1.23;;
7233;SDS011;3658;47.992;10.158;2023-07-29T05:20:48;1.50;;;1.40;;
7233;SDS011;3658;47.992;10.158;2023-07-29T05:23:16;1.40;;;1.30;;
7233;SDS011;3658;47.992;10.158;2023-07-29T05:25:43;1.40;;;1.30;;
7233;SDS011;3658;47.992;10.158;2023-07-29T05:28:10;1.90;;;1.67;;
7233;SDS011;3658;47.992;10.158;2023-07-29T05:30:36;1.63;;;1.53;;
7233;SDS011;3658;47.992;10.158;2023-07-29T05:33:05;1.40;;;1.30;;
7233;SDS011;3658;47.992;10.158;2023-07-29T05:35:32;3.30;;;1.47;;
7233;SDS011;3658;47.992;10.158;2023-07-29T05:37:59;1.33;;;1.23;;
7233;SDS011;3658;47.992;10.158;2023-07-29T05:40:29;1.60;;;1.40;;
7233;SDS011;3658;47.992;10.158;2023-07-29T05:42:56;1.53;;;1.43;;
7233;SDS011;3658;47.992;10.158;2023-07-29T05:45:23;1.57;;;1.47;;
7233;SDS011;3658;47.992;10.158;2023-07-29T05:47:50;1.50;;;1.40;;
7233;SDS011;3658;47.992;10.158;2023-07-29T05:50:16;1.80;;;1.40;;
7233;SDS011;3658;47.992;10.158;2023-07-29T05:52:43;1.40;;;1.30;;
7233;SDS011;3658;47.992;10.158;2023-07-29T05:55:10;1.50;;;1.40;;
7233;SDS011;3658;47.992;10.158;2023-07-29T05:57:38;1.40;;;1.30;;
7233;SDS011;3658;47.992;10.158;2023-07-29T06:00:05;1.37;;;1.27;;
7233;SDS011;3658;47.992;10.158;2023-07-29T06:02:33;1.77;;;1.50;;
7233;SDS011;3658;47.992;10.158;2023-07-29T06:04:59;1.60;;;1.50;;
7233;SDS011;3658;47.992;10.158;2023-07-29T06:07:28;1.57;;;1.47;;
7233;SDS011;3658;47.992;10.158;2023-07-29T06:09:55;1.50;;;1.40;;
7233;SDS011;3658;47.992;10.158;2023-07-29T06:12:23;1.50;;;1.40;;
7233;SDS011;3658;47.992;10.158;2023-07-29T06:14:51;1.83;;;1.60;;
7233;SDS011;3658;47.992;10.158;2023-07-29T06:17:18;1.50;;;1.40;;
7233;SDS011;3658;47.992;10.158;2023-07-29T06:19:44;1.70;;;1.60;;
7233;SDS011;3658;47.992;10.158;2023-07-29T06:22:11;1.53;;;1.40;;
7233;SDS011;3658;47.992;10.158;2023-07-29T06:24:38;1.50;;;1.40;;
7233;SDS011;3658;47.992;10.158;2023-07-29T06:27:05;1.63;;;1.53;;
7233;SDS011;3658;47.992;10.158;2023-07-29T06:29:32;1.80;;;1.43;;
7233;SDS011;3658;47.992;10.158;2023-07-29T06:32:00;1.40;;;1.27;;
7233;SDS011;3658;47.992;10.158;2023-07-29T06:34:27;1.40;;;1.30;;
7233;SDS011;3658;47.992;10.158;2023-07-29T06:36:54;4.47;;;1.60;;
7233;SDS011;3658;47.992;10.158;2023-07-29T06:39:21;1.73;;;1.50;;
7233;SDS011;3658;47.992;10.158;2023-07-29T06:41:48;5.40;;;1.63;;
7233;SDS011;3658;47.992;10.158;2023-07-29T06:44:14;2.53;;;1.43;;
7233;SDS011;3658;47.992;10.158;2023-07-29T06:46:41;2.00;;;1.43;;
7233;SDS011;3658;47.992;10.158;2023-07-29T06:49:10;2.07;;;1.63;;
7233;SDS011;3658;47.992;10.158;2023-07-29T06:51:37;1.70;;;1.60;;
7233;SDS011;3658;47.992;10.158;2023-07-29T06:54:04;3.37;;;1.60;;
7233;SDS011;3658;47.992;10.158;2023-07-29T06:56:30;2.50;;;1.50;;
7233;SDS011;3658;47.992;10.158;2023-07-29T06:58:57;2.50;;;1.53;;
7233;SDS011;3658;47.992;10.158;2023-07-29T07:01:24;2.73;;;1.50;;
7233;SDS011;3658;47.992;10.158;2023-07-29T07:03:51;3.23;;;1.93;;
7233;SDS011;3658;47.992;10.158;2023-07-29T07:06:20;1.70;;;1.40;;
7233;SDS011;3658;47.992;10.158;2023-07-29T07:08:49;1.70;;;1.60;;
7233;SDS011;3658;47.992;10.158;2023-07-29T07:11:16;3.87;;;1.77;;
7233;SDS011;3658;47.992;10.158;2023-07-29T07:13:44;2.37;;;1.60;;
7233;SDS011;3658;47.992;10.158;2023-07-29T07:16:11;1.40;;;1.30;;
7233;SDS011;3658;47.992;10.158;2023-07-29T07:18:37;3.20;;;1.73;;
7233;SDS011;3658;47.992;10.158;2023-07-29T07:21:04;1.73;;;1.50;;
7233;SDS011;3658;47.992;10.158;2023-07-29T07:23:32;2.33;;;1.83;;
7233;SDS011;3658;47.992;10.158;2023-07-29T07:25:59;9.83;;;2.50;;
7233;SDS011;3658;47.992;10.158;2023-07-29T07:28:26;5.23;;;2.27;;
7233;SDS011;3658;47.992;10.158;2023-07-29T07:30:52;7.03;;;2.43;;
7233;SDS011;3658;47.992;10.158;2023-07-29T07:33:21;4.53;;;2.00;;
7233;SDS011;3658;47.992;10.158;2023-07-29T07:35:48;4.17;;;2.20;;
7233;SDS011;3658;47.992;10.158;2023-07-29T07:38:14;5.10;;;2.00;;
7233;SDS011;3658;47.992;10.158;2023-07-29T07:40:42;3.00;;;1.80;;
7233;SDS011;3658;47.992;10.158;2023-07-29T07:43:19;3.27;;;1.80;;
7233;SDS011;3658;47.992;10.158;2023-07-29T07:45:46;4.50;;;2.03;;
7233;SDS011;3658;47.992;10.158;2023-07-29T07:48:13;6.50;;;1.90;;
7233;SDS011;3658;47.992;10.158;2023-07-29T07:50:41;2.93;;;1.80;;
7233;SDS011;3658;47.992;10.158;2023-07-29T07:53:08;4.20;;;1.93;;
7233;SDS011;3658;47.992;10.158;2023-07-29T07:55:35;4.70;;;1.90;;
7233;SDS011;3658;47.992;10.158;2023-07-29T07:58:03;3.97;;;1.80;;
7233;SDS011;3658;47.992;10.158;2023-07-29T08:00:30;2.83;;;1.60;;
7233;SDS011;3658;47.992;10.158;2023-07-29T08:02:56;3.60;;;1.90;;
7233;SDS011;3658;47.992;10.158;2023-07-29T08:05:23;4.23;;;1.97;;
7233;SDS011;3658;47.992;10.158;2023-07-29T08:07:50;3.40;;;1.90;;
7233;SDS011;3658;47.992;10.158;2023-07-29T08:10:17;3.17;;;1.93;;
7233;SDS011;3658;47.992;10.158;2023-07-29T08:12:44;5.80;;;2.03;;
7233;SDS011;3658;47.992;10.158;2023-07-29T08:15:12;4.07;;;1.70;;
7233;SDS011;3658;47.992;10.158;2023-07-29T08:17:39;3.70;;;1.90;;
7233;SDS011;3658;47.992;10.158;2023-07-29T08:20:06;2.60;;;1.90;;
7233;SDS011;3658;47.992;10.158;2023-07-29T08:22:33;2.23;;;1.60;;
7233;SDS011;3658;47.992;10.158;2023-07-29T08:25:00;2.47;;;1.83;;
7233;SDS011;3658;47.992;10.158;2023-07-29T08:27:27;2.87;;;1.83;;
7233;SDS011;3658;47.992;10.158;2023-07-29T08:29:54;2.20;;;1.50;;
7233;SDS011;3658;47.992;10.158;2023-07-29T08:32:22;3.10;;;1.80;;
7233;SDS011;3658;47.992;10.158;2023-07-29T08:34:49;4.77;;;2.10;;
7233;SDS011;3658;47.992;10.158;2023-07-29T08:37:16;5.60;;;2.00;;
7233;SDS011;3658;47.992;10.158;2023-07-29T08:39:42;2.47;;;1.63;;
7233;SDS011;3658;47.992;10.158;2023-07-29T08:42:11;5.07;;;1.90;;
7233;SDS011;3658;47.992;10.158;2023-07-29T08:44:40;4.30;;;2.07;;
7233;SDS011;3658;47.992;10.158;2023-07-29T08:47:07;3.40;;;1.90;;
7233;SDS011;3658;47.992;10.158;2023-07-29T08:49:35;3.07;;;1.70;;
7233;SDS011;3658;47.992;10.158;2023-07-29T08:52:03;5.13;;;1.97;;
7233;SDS011;3658;47.992;10.158;2023-07-29T08:54:31;3.03;;;1.87;;
7233;SDS011;3658;47.992;10.158;2023-07-29T08:56:57;2.77;;;1.70;;
7233;SDS011;3658;47.992;10.158;2023-07-29T08:59:24;3.10;;;2.20;;
7233;SDS011;3658;47.992;10.158;2023-07-29T09:01:54;2.13;;;1.60;;
7233;SDS011;3658;47.992;10.158;2023-07-29T09:04:22;2.33;;;1.80;;
7233;SDS011;3658;47.992;10.158;2023-07-29T09:06:51;3.00;;;2.00;;
7233;SDS011;3658;47.992;10.158;2023-07-29T09:09:21;1.87;;;1.50;;
7233;SDS011;3658;47.992;10.158;2023-07-29T09:11:48;2.30;;;2.03;;
7233;SDS011;3658;47.992;10.158;2023-07-29T09:14:15;3.20;;;1.70;;
7233;SDS011;3658;47.992;10.158;2023-07-29T09:16:42;2.17;;;1.70;;
7233;SDS011;3658;47.992;10.158;2023-07-29T09:19:10;2.13;;;1.80;;
7233;SDS011;3658;47.992;10.158;2023-07-29T09:21:38;3.50;;;2.20;;
7233;SDS011;3658;47.992;10.158;2023-07-29T09:24:07;3.40;;;1.70;;
7233;SDS011;3658;47.992;10.158;2023-07-29T09:26:35;3.37;;;1.80;;
7233;SDS011;3658;47.992;10.158;2023-07-29T09:29:02;2.77;;;1.80;;
7233;SDS011;3658;47.992;10.158;2023-07-29T09:31:29;1.87;;;1.57;;
7233;SDS011;3658;47.992;10.158;2023-07-29T09:33:56;3.77;;;1.80;;
7233;SDS011;3658;47.992;10.158;2023-07-29T09:36:24;1.93;;;1.70;;
7233;SDS011;3658;47.992;10.158;2023-07-29T09:38:54;3.63;;;1.73;;
7233;SDS011;3658;47.992;10.158;2023-07-29T09:41:23;3.00;;;1.70;;
7233;SDS011;3658;47.992;10.158;2023-07-29T09:43:55;1.77;;;1.67;;
7233;SDS011;3658;47.992;10.158;2023-07-29T09:46:24;2.50;;;1.80;;
7233;SDS011;3658;47.992;10.158;2023-07-29T09:48:53;1.97;;;1.70;;
7233;SDS011;3658;47.992;10.158;2023-07-29T09:51:21;2.60;;;2.00;;
7233;SDS011;3658;47.992;10.158;2023-07-29T09:53:49;3.93;;;2.00;;
7233;SDS011;3658;47.992;10.158;2023-07-29T09:56:17;2.00;;;1.67;;
7233;SDS011;3658;47.992;10.158;2023-07-29T09:58:45;2.20;;;1.80;;
7233;SDS011;3658;47.992;10.158;2023-07-29T10:01:14;2.23;;;1.93;;
7233;SDS011;3658;47.992;10.158;2023-07-29T10:03:41;2.97;;;1.67;;
7233;SDS011;3658;47.992;10.158;2023-07-29T10:06:08;1.80;;;1.70;;
7233;SDS011;3658;47.992;10.158;2023-07-29T10:08:35;1.67;;;1.50;;
7233;SDS011;3658;47.992;10.158;2023-07-29T10:11:03;2.23;;;1.80;;
7233;SDS011;3658;47.992;10.158;2023-07-29T10:13:33;1.80;;;1.60;;
7233;SDS011;3658;47.992;10.158;2023-07-29T10:16:02;2.53;;;1.90;;
7233;SDS011;3658;47.992;10.158;2023-07-29T10:18:30;1.87;;;1.63;;
7233;SDS011;3658;47.992;10.158;2023-07-29T10:20:58;2.47;;;2.00;;
7233;SDS011;3658;47.992;10.158;2023-07-29T10:23:26;2.30;;;1.80;;
7233;SDS011;3658;47.992;10.158;2023-07-29T10:25:58;1.97;;;1.70;;
7233;SDS011;3658;47.992;10.158;2023-07-29T10:28:29;2.00;;;1.77;;
7233;SDS011;3658;47.992;10.158;2023-07-29T10:30:57;3.33;;;2.00;;
7233;SDS011;3658;47.992;10.158;2023-07-29T10:33:25;2.43;;;1.80;;
7233;SDS011;3658;47.992;10.158;2023-07-29T10:35:53;1.90;;;1.70;;
7233;SDS011;3658;47.992;10.158;2023-07-29T10:38:20;2.10;;;1.67;;
7233;SDS011;3658;47.992;10.158;2023-07-29T10:40:50;2.03;;;1.77;;
7233;SDS011;3658;47.992;10.158;2023-07-29T10:43:24;2.10;;;1.90;;
7233;SDS011;3658;47.992;10.158;2023-07-29T10:45:51;2.00;;;1.50;;
7233;SDS011;3658;47.992;10.158;2023-07-29T10:51:21;1.77;;;1.63;;
7233;SDS011;3658;47.992;10.158;2023-07-29T10:53:51;2.40;;;1.90;;
7233;SDS011;3658;47.992;10.158;2023-07-29T10:56:24;2.40;;;1.63;;
7233;SDS011;3658;47.992;10.158;2023-07-29T10:58:52;1.60;;;1.50;;
7233;SDS011;3658;47.992;10.158;2023-07-29T11:01:26;2.10;;;1.90;;
7233;SDS011;3658;47.992;10.158;2023-07-29T11:10:01;1.90;;;1.70;;
7233;SDS011;3658;47.992;10.158;2023-07-29T11:12:39;1.77;;;1.67;;
7233;SDS011;3658;47.992;10.158;2023-07-29T11:15:12;1.77;;;1.67;;
7233;SDS011;3658;47.992;10.158;2023-07-29T11:17:50;1.77;;;1.53;;
7233;SDS011;3658;47.992;10.158;2023-07-29T11:20:20;1.77;;;1.67;;
7233;SDS011;3658;47.992;10.158;2023-07-29T11:22:48;1.87;;;1.70;;
7233;SDS011;3658;47.992;10.158;2023-07-29T11:25:16;1.60;;;1.50;;
7233;SDS011;3658;47.992;10.158;2023-07-29T11:27:44;1.83;;;1.60;;
7233;SDS011;3658;47.992;10.158;2023-07-29T11:30:12;1.63;;;1.53;;
7233;SDS011;3658;47.992;10.158;2023-07-29T11:32:40;1.50;;;1.40;;
7233;SDS011;3658;47.992;10.158;2023-07-29T11:35:08;1.87;;;1.73;;
7233;SDS011;3658;47.992;10.158;2023-07-29T11:37:37;2.50;;;1.70;;
7233;SDS011;3658;47.992;10.158;2023-07-29T11:40:05;2.40;;;1.80;;
7233;SDS011;3658;47.992;10.158;2023-07-29T11:42:35;1.50;;;1.40;;
7233;SDS011;3658;47.992;10.158;2023-07-29T11:45:03;1.70;;;1.60;;
7233;SDS011;3658;47.992;10.158;2023-07-29T11:47:31;1.70;;;1.60;;
7233;SDS011;3658;47.992;10.158;2023-07-29T11:50:00;2.53;;;2.00;;
7233;SDS011;3658;47.992;10.158;2023-07-29T11:52:28;2.60;;;1.80;;
7233;SDS011;3658;47.992;10.158;2023-07-29T11:54:59;1.77;;;1.67;;
7233;SDS011;3658;47.992;10.158;2023-07-29T11:57:27;2.20;;;1.80;;
7233;SDS011;3658;47.992;10.158;2023-07-29T11:59:54;1.70;;;1.60;;
7233;SDS011;3658;47.992;10.158;2023-07-29T12:02:21;1.93;;;1.73;;
7233;SDS011;3658;47.992;10.158;2023-07-29T12:04:50;1.67;;;1.57;;
7233;SDS011;3658;47.992;10.158;2023-07-29T12:07:18;1.90;;;1.73;;
7233;SDS011;3658;47.992;10.158;2023-07-29T12:09:45;1.70;;;1.60;;
7233;SDS011;3658;47.992;10.158;2023-07-29T12:12:14;1.70;;;1.60;;
7233;SDS011;3658;47.992;10.158;2023-07-29T12:14:43;2.00;;;1.50;;
7233;SDS011;3658;47.992;10.158;2023-07-29T12:17:11;2.03;;;1.83;;
7233;SDS011;3658;47.992;10.158;2023-07-29T12:19:38;2.70;;;1.50;;
7233;SDS011;3658;47.992;10.158;2023-07-29T12:22:07;2.23;;;1.50;;
7233;SDS011;3658;47.992;10.158;2023-07-29T12:24:35;1.70;;;1.60;;
7233;SDS011;3658;47.992;10.158;2023-07-29T12:27:04;1.90;;;1.70;;
7233;SDS011;3658;47.992;10.158;2023-07-29T12:29:39;1.70;;;1.60;;
7233;SDS011;3658;47.992;10.158;2023-07-29T12:32:06;1.50;;;1.40;;
7233;SDS011;3658;47.992;10.158;2023-07-29T12:34:34;1.90;;;1.70;;
7233;SDS011;3658;47.992;10.158;2023-07-29T12:37:03;1.80;;;1.70;;
7233;SDS011;3658;47.992;10.158;2023-07-29T12:39:31;1.90;;;1.70;;
7233;SDS011;3658;47.992;10.158;2023-07-29T12:41:59;3.23;;;1.73;;
7233;SDS011;3658;47.992;10.158;2023-07-29T12:44:29;2.90;;;1.60;;
7233;SDS011;3658;47.992;10.158;2023-07-29T12:46:58;2.03;;;1.83;;
7233;SDS011;3658;47.992;10.158;2023-07-29T12:49:25;1.77;;;1.67;;
7233;SDS011;3658;47.992;10.158;2023-07-29T12:51:53;1.67;;;1.57;;
7233;SDS011;3658;47.992;10.158;2023-07-29T12:54:20;2.00;;;1.87;;
7233;SDS011;3658;47.992;10.158;2023-07-29T12:56:47;1.80;;;1.60;;
7233;SDS011;3658;47.992;10.158;2023-07-29T12:59:13;1.70;;;1.60;;
7233;SDS011;3658;47.992;10.158;2023-07-29T13:01:40;1.53;;;1.43;;
7233;SDS011;3658;47.992;10.158;2023-07-29T13:04:08;1.47;;;1.37;;
7233;SDS011;3658;47.992;10.158;2023-07-29T13:06:35;1.50;;;1.40;;
7233;SDS011;3658;47.992;10.158;2023-07-29T13:09:02;1.70;;;1.60;;
7233;SDS011;3658;47.992;10.158;2023-07-29T13:11:30;1.87;;;1.67;;
7233;SDS011;3658;47.992;10.158;2023-07-29T13:13:58;1.70;;;1.60;;
7233;SDS011;3658;47.992;10.158;2023-07-29T13:16:25;1.50;;;1.40;;
7233;SDS011;3658;47.992;10.158;2023-07-29T13:18:52;1.67;;;1.57;;
7233;SDS011;3658;47.992;10.158;2023-07-29T13:21:20;1.60;;;1.50;;
7233;SDS011;3658;47.992;10.158;2023-07-29T13:23:47;1.70;;;1.60;;
7233;SDS011;3658;47.992;10.158;2023-07-29T13:26:14;1.70;;;1.60;;
7233;SDS011;3658;47.992;10.158;2023-07-29T13:28:41;2.00;;;1.63;;
7233;SDS011;3658;47.992;10.158;2023-07-29T13:31:07;2.17;;;1.70;;
7233;SDS011;3658;47.992;10.158;2023-07-29T13:33:34;1.60;;;1.50;;
7233;SDS011;3658;47.992;10.158;2023-07-29T13:36:01;1.60;;;1.50;;
7233;SDS011;3658;47.992;10.158;2023-07-29T13:38:29;1.77;;;1.67;;
7233;SDS011;3658;47.992;10.158;2023-07-29T13:40:56;1.67;;;1.57;;
7233;SDS011;3658;47.992;10.158;2023-07-29T13:43:23;1.60;;;1.50;;
7233;SDS011;3658;47.992;10.158;2023-07-29T13:45:50;1.40;;;1.30;;
7233;SDS011;3658;47.992;10.158;2023-07-29T13:48:17;1.60;;;1.50;;
7233;SDS011;3658;47.992;10.158;2023-07-29T13:50:44;2.10;;;1.47;;
7233;SDS011;3658;47.992;10.158;2023-07-29T13:53:11;1.57;;;1.47;;
7233;SDS011;3658;47.992;10.158;2023-07-29T13:55:39;2.33;;;1.87;;
7233;SDS011;3658;47.992;10.158;2023-07-29T13:58:06;1.70;;;1.60;;
7233;SDS011;3658;47.992;10.158;2023-07-29T14:00:33;2.57;;;1.70;;
7233;SDS011;3658;47.992;10.158;2023-07-29T14:03:00;2.17;;;1.80;;
7233;SDS011;3658;47.992;10.158;2023-07-29T14:05:26;1.93;;;1.60;;
7233;SDS011;3658;47.992;10.158;2023-07-29T14:07:53;1.80;;;1.67;;
7233;SDS011;3658;47.992;10.158;2023-07-29T14:10:20;1.73;;;1.63;;
7233;SDS011;3658;47.992;10.158;2023-07-29T14:12:48;1.60;;;1.50;;
7233;SDS011;3658;47.992;10.158;2023-07-29T14:15:15;1.70;;;1.60;;
7233;SDS011;3658;47.992;10.158;2023-07-29T14:17:42;1.43;;;1.33;;
7233;SDS011;3658;47.992;10.158;2023-07-29T14:20:09;1.87;;;1.63;;
7233;SDS011;3658;47.992;10.158;2023-07-29T14:22:36;1.70;;;1.60;;
7233;SDS011;3658;47.992;10.158;2023-07-29T14:25:03;1.60;;;1.50;;
7233;SDS011;3658;47.992;10.158;2023-07-29T14:27:31;1.60;;;1.50;;
7233;SDS011;3658;47.992;10.158;2023-07-29T14:29:59;1.80;;;1.60;;
7233;SDS011;3658;47.992;10.158;2023-07-29T14:32:26;1.73;;;1.60;;
7233;SDS011;3658;47.992;10.158;2023-07-29T14:34:53;2.27;;;1.57;;
7233;SDS011;3658;47.992;10.158;2023-07-29T14:37:20;3.87;;;1.50;;
7233;SDS011;3658;47.992;10.158;2023-07-29T14:39:47;2.60;;;1.50;;
7233;SDS011;3658;47.992;10.158;2023-07-29T14:42:14;1.70;;;1.60;;
7233;SDS011;3658;47.992;10.158;2023-07-29T14:44:40;1.60;;;1.50;;
7233;SDS011;3658;47.992;10.158;2023-07-29T14:47:09;1.83;;;1.70;;
7233;SDS011;3658;47.992;10.158;2023-07-29T14:49:35;2.53;;;1.60;;
7233;SDS011;3658;47.992;10.158;2023-07-29T14:52:02;1.60;;;1.50;;
7233;SDS011;3658;47.992;10.158;2023-07-29T14:54:29;1.70;;;1.60;;
7233;SDS011;3658;47.992;10.158;2023-07-29T14:56:56;1.80;;;1.70;;
7233;SDS011;3658;47.992;10.158;2023-07-29T14:59:23;2.60;;;1.77;;
7233;SDS011;3658;47.992;10.158;2023-07-29T15:01:50;2.00;;;1.50;;
7233;SDS011;3658;47.992;10.158;2023-07-29T15:04:18;1.80;;;1.57;;
7233;SDS011;3658;47.992;10.158;2023-07-29T15:06:45;1.77;;;1.47;;
7233;SDS011;3658;47.992;10.158;2023-07-29T15:09:12;1.83;;;1.70;;
7233;SDS011;3658;47.992;10.158;2023-07-29T15:11:39;2.00;;;1.60;;